createdAt,value
2018-08-25T00:01:58.941Z,96597.36
2018-08-25T00:05:23.582Z,96597.62
2018-08-25T00:08:48.240Z,96596.59
2018-08-25T00:12:12.900Z,96586.62
2018-08-25T00:15:37.518Z,96596.33
2018-08-25T00:19:03.215Z,96588.66
2018-08-25T00:22:27.816Z,96591.42
2018-08-25T00:25:52.446Z,96588.80
2018-08-25T00:29:17.103Z,96589.73
2018-08-25T00:32:41.766Z,96585.56
2018-08-25T00:36:06.427Z,96583.22
2018-08-25T00:39:31.077Z,96571.77
2018-08-25T00:42:55.742Z,96555.23
2018-08-25T00:46:20.416Z,96550.25
2018-08-25T00:49:45.050Z,96553.22
2018-08-25T00:53:09.661Z,96549.53
2018-08-25T00:56:34.314Z,96552.52
2018-08-25T00:59:58.919Z,96554.39
2018-08-25T01:03:23.620Z,96541.06
2018-08-25T01:06:48.482Z,96550.70
2018-08-25T01:10:13.186Z,96546.30
2018-08-25T01:13:37.828Z,96542.48
2018-08-25T01:17:02.689Z,96537.83
2018-08-25T01:20:27.392Z,96544.77
2018-08-25T01:23:52.090Z,96544.52
2018-08-25T01:27:16.729Z,96546.54
2018-08-25T01:30:41.400Z,96546.22
2018-08-25T01:34:06.127Z,96537.86
2018-08-25T01:37:30.774Z,96540.84
2018-08-25T01:40:55.415Z,96545.00
2018-08-25T01:44:20.078Z,96543.59
2018-08-25T01:47:44.653Z,96539.92
2018-08-25T01:51:09.297Z,96533.22
2018-08-25T01:54:33.934Z,96539.06
2018-08-25T01:57:58.597Z,96533.35
2018-08-25T02:01:23.180Z,96532.87
2018-08-25T02:04:47.837Z,96529.03
2018-08-25T02:08:12.476Z,96532.75
2018-08-25T02:11:37.090Z,96534.03
2018-08-25T02:15:01.730Z,96530.48
2018-08-25T02:18:26.374Z,96529.64
2018-08-25T02:21:51.000Z,96537.88
2018-08-25T02:25:15.650Z,96532.61
2018-08-25T02:28:40.324Z,96523.55
2018-08-25T02:32:05.006Z,96522.73
2018-08-25T02:35:29.650Z,96523.11
2018-08-25T02:38:54.256Z,96522.88
2018-08-25T02:42:18.847Z,96514.66
2018-08-25T02:45:43.460Z,96522.52
2018-08-25T02:49:08.247Z,96516.19
2018-08-25T02:52:33.136Z,96513.94
2018-08-25T02:55:57.789Z,96510.33
2018-08-25T02:59:22.442Z,96504.09
2018-08-25T03:02:47.076Z,96494.89
2018-08-25T03:06:11.915Z,96502.33
2018-08-25T03:09:36.539Z,96499.73
2018-08-25T03:13:01.198Z,96498.44
2018-08-25T03:16:25.821Z,96492.08
2018-08-25T03:19:50.444Z,96488.23
2018-08-25T03:23:15.174Z,96490.41
2018-08-25T03:26:39.882Z,96478.08
2018-08-25T03:30:04.571Z,96483.44
2018-08-25T03:33:29.356Z,96487.17
2018-08-25T03:36:53.958Z,96489.69
2018-08-25T03:40:18.563Z,96498.08
2018-08-25T03:43:43.200Z,96486.09
2018-08-25T03:47:07.898Z,96490.27
2018-08-25T03:50:32.622Z,96487.08
2018-08-25T03:53:57.321Z,96488.43
2018-08-25T03:57:21.979Z,96486.10
2018-08-25T04:00:46.704Z,96482.08
2018-08-25T04:04:11.360Z,96486.91
2018-08-25T04:07:35.957Z,96493.05
2018-08-25T04:11:00.581Z,96484.01
2018-08-25T04:14:25.204Z,96485.83
2018-08-25T04:17:49.948Z,96474.41
2018-08-25T04:21:14.679Z,96478.86
2018-08-25T04:24:39.244Z,96477.98
2018-08-25T04:28:03.920Z,96475.47
2018-08-25T04:31:28.574Z,96468.75
2018-08-25T04:34:53.256Z,96462.78
2018-08-25T04:38:17.929Z,96465.83
2018-08-25T04:41:42.597Z,96463.02
2018-08-25T04:45:07.370Z,96461.45
2018-08-25T04:48:32.040Z,96468.02
2018-08-25T04:51:56.702Z,96468.39
2018-08-25T04:55:21.381Z,96466.91
2018-08-25T04:58:46.017Z,96462.09
2018-08-25T05:02:10.688Z,96464.43
2018-08-25T05:07:04.386Z,96466.45
2018-08-25T05:10:28.984Z,96471.52
2018-08-25T05:13:53.606Z,96462.38
2018-08-25T05:17:18.246Z,96462.50
2018-08-25T05:20:42.920Z,96462.05
2018-08-25T05:24:07.569Z,96466.12
2018-08-25T05:27:32.190Z,96466.11
2018-08-25T05:30:57.148Z,96466.31
2018-08-25T05:34:21.794Z,96463.77
2018-08-25T05:37:46.442Z,96461.31
2018-08-25T05:41:11.104Z,96456.21
2018-08-25T05:44:35.725Z,96459.23
2018-08-25T05:48:00.341Z,96454.61
2018-08-25T05:51:24.975Z,96452.22
2018-08-25T05:54:49.615Z,96452.70
2018-08-25T05:58:14.248Z,96443.37
2018-08-25T06:01:38.901Z,96456.96
2018-08-25T06:05:03.618Z,96457.98
2018-08-25T06:08:28.299Z,96451.80
2018-08-25T06:11:53.087Z,96444.17
2018-08-25T06:15:17.802Z,96444.41
2018-08-25T06:18:42.487Z,96436.79
2018-08-25T06:22:07.170Z,96439.77
2018-08-25T06:25:31.813Z,96443.14
2018-08-25T06:28:56.493Z,96446.36
2018-08-25T06:32:21.175Z,96445.89
2018-08-25T06:35:45.823Z,96442.53
2018-08-25T06:39:11.062Z,96446.22
2018-08-25T06:42:35.806Z,96443.96
2018-08-25T06:46:05.691Z,96444.02
2018-08-25T06:49:30.349Z,96438.09
2018-08-25T06:52:55.008Z,96438.02
2018-08-25T06:56:19.676Z,96443.41
2018-08-25T06:59:44.371Z,96453.17
2018-08-25T07:03:09.011Z,96454.31
2018-08-25T07:06:33.797Z,96441.98
2018-08-25T07:09:58.541Z,96434.23
2018-08-25T07:13:23.297Z,96437.02
2018-08-25T07:16:48.051Z,96439.37
2018-08-25T07:20:12.850Z,96447.08
2018-08-25T07:23:37.617Z,96450.38
2018-08-25T07:27:02.546Z,96452.88
2018-08-25T07:30:27.385Z,96458.87
2018-08-25T07:33:52.132Z,96459.95
2018-08-25T07:37:17.027Z,96457.46
2018-08-25T07:40:41.974Z,96461.39
2018-08-25T07:44:07.029Z,96456.41
2018-08-25T07:47:32.547Z,96454.22
2018-08-25T07:50:57.589Z,96453.98
2018-08-25T07:54:22.364Z,96466.88
2018-08-25T07:57:47.231Z,96462.14
2018-08-25T08:01:11.999Z,96459.20
2018-08-25T08:04:36.779Z,96459.20
2018-08-25T08:08:02.448Z,96473.81
2018-08-25T08:11:27.326Z,96474.14
2018-08-25T08:14:52.154Z,96482.42
2018-08-25T08:18:17.266Z,96485.39
2018-08-25T08:21:41.943Z,96481.00
2018-08-25T08:25:06.723Z,96475.62
2018-08-25T08:28:31.507Z,96479.31
2018-08-25T08:31:56.237Z,96475.67
2018-08-25T08:35:21.197Z,96487.97
2018-08-25T08:38:45.968Z,96488.48
2018-08-25T08:42:10.768Z,96488.95
2018-08-25T08:45:35.751Z,96492.78
2018-08-25T08:49:00.449Z,96498.35
2018-08-25T08:52:25.782Z,96496.03
2018-08-25T08:55:50.429Z,96505.31
2018-08-25T08:59:16.266Z,96511.19
2018-08-25T09:02:41.341Z,96519.05
2018-08-25T09:06:06.924Z,96517.88
2018-08-25T09:09:32.069Z,96526.91
2018-08-25T09:12:57.793Z,96527.41
2018-08-25T09:16:23.609Z,96514.19
2018-08-25T09:19:50.157Z,96519.66
2018-08-25T09:23:16.527Z,96517.25
2018-08-25T09:26:41.918Z,96517.39
2018-08-25T09:30:08.085Z,96514.42
2018-08-25T09:33:33.617Z,96510.07
2018-08-25T09:36:59.052Z,96516.43
2018-08-25T09:40:24.600Z,96508.82
2018-08-25T12:21:47.902Z,96546.06
2018-08-25T12:25:12.502Z,96552.05
2018-08-25T12:28:37.223Z,96553.89
2018-08-25T12:32:01.919Z,96554.35
2018-08-25T12:35:26.615Z,96542.59
2018-08-25T12:38:51.257Z,96545.70
2018-08-25T12:42:15.903Z,96553.22
2018-08-25T12:45:40.619Z,96549.38
2018-08-25T12:49:05.468Z,96553.31
2018-08-25T12:52:30.609Z,96548.41
2018-08-25T12:55:55.255Z,96547.81
2018-08-25T12:59:22.714Z,96543.44
2018-08-25T13:02:48.004Z,96543.50
2018-08-25T13:06:12.848Z,96544.38
2018-08-25T13:09:38.109Z,96542.80
2018-08-25T13:13:02.815Z,96547.75
2018-08-25T13:16:27.472Z,96539.88
2018-08-25T13:19:52.349Z,96538.17
2018-08-25T13:23:17.067Z,96542.16
2018-08-25T13:26:41.803Z,96540.73
2018-08-25T13:30:06.743Z,96534.09
2018-08-25T13:33:31.404Z,96533.80
2018-08-25T13:36:56.126Z,96541.34
2018-08-25T13:40:20.841Z,96532.60
2018-08-25T13:43:45.647Z,96532.48
2018-08-25T13:47:10.270Z,96526.58
2018-08-25T13:50:35.003Z,96524.54
2018-08-25T13:53:59.714Z,96525.22
2018-08-25T13:57:24.410Z,96527.56
2018-08-25T14:00:49.123Z,96528.37
2018-08-25T14:04:13.782Z,96523.63
2018-08-25T14:07:38.488Z,96528.06
2018-08-25T14:11:03.136Z,96526.94
2018-08-25T14:14:27.795Z,96516.01
2018-08-25T14:17:52.425Z,96512.11
2018-08-25T14:21:17.126Z,96507.83
2018-08-25T14:24:41.822Z,96512.28
2018-08-25T14:28:06.509Z,96513.19
2018-08-25T14:31:31.182Z,96511.17
2018-08-25T14:34:55.862Z,96508.39
2018-08-25T14:38:20.540Z,96509.47
2018-08-25T14:41:45.279Z,96510.84
2018-08-25T14:45:10.070Z,96511.70
2018-08-25T14:48:34.758Z,96503.52
2018-08-25T14:51:59.438Z,96500.08
2018-08-25T14:55:24.070Z,96515.43
2018-08-25T14:58:48.791Z,96513.72
2018-08-25T15:02:14.541Z,96524.42
2018-08-25T15:05:39.330Z,96525.30
2018-08-25T15:09:05.993Z,96520.96
2018-08-25T15:12:30.730Z,96519.95
2018-08-25T15:15:56.672Z,96525.03
2018-08-25T15:19:21.914Z,96518.54
2018-08-25T15:36:31.730Z,96526.05
2018-08-25T15:39:56.548Z,96527.03
2018-08-25T15:46:56.704Z,96525.95
2018-08-25T15:50:21.421Z,96520.69
2018-08-25T15:53:46.080Z,96514.89
2018-08-25T15:57:10.912Z,96515.06
2018-08-25T16:00:35.664Z,96519.05
2018-08-25T16:04:00.536Z,96511.57
2018-08-25T16:07:25.406Z,96510.03
2018-08-25T16:10:50.232Z,96505.41
2018-08-25T16:14:14.943Z,96515.73
2018-08-25T16:17:39.683Z,96525.42
2018-08-25T16:21:04.693Z,96551.21
2018-08-25T16:24:29.497Z,96560.98
2018-08-25T16:27:54.285Z,96565.87
2018-08-25T16:31:19.144Z,96560.38
2018-08-25T16:34:44.090Z,96556.61
2018-08-25T16:38:08.953Z,96571.09
2018-08-25T16:41:33.729Z,96558.58
2018-08-25T16:44:58.531Z,96571.08
2018-08-25T16:48:24.242Z,96564.40
2018-08-25T16:51:49.081Z,96572.36
2018-08-25T16:55:13.864Z,96564.69
2018-08-25T17:00:07.591Z,96563.34
2018-08-25T17:03:32.378Z,96568.58
2018-08-25T17:06:57.121Z,96568.65
2018-08-25T17:10:21.961Z,96570.38
2018-08-25T17:13:55.787Z,96579.40
2018-08-25T17:20:53.751Z,96577.56
2018-08-25T17:24:18.580Z,96575.98
2018-08-25T17:27:43.439Z,96573.55
2018-08-25T17:31:08.329Z,96575.23
2018-08-25T17:38:07.866Z,96585.14
2018-08-25T17:41:32.662Z,96599.61
2018-08-25T17:44:57.886Z,96604.53
2018-08-25T17:48:22.701Z,96606.42
2018-08-25T17:51:47.440Z,96613.47
2018-08-25T17:55:12.993Z,96622.67
2018-08-25T17:58:37.815Z,96615.56
2018-08-25T18:02:02.807Z,96632.27
2018-08-25T18:05:27.590Z,96629.56
2018-08-25T18:08:52.423Z,96643.41
2018-08-25T18:12:17.215Z,96648.73
2018-08-25T18:15:41.987Z,96650.39
2018-08-25T18:19:07.403Z,96656.59
2018-08-25T18:22:32.550Z,96645.05
2018-08-25T18:25:57.799Z,96652.73
2018-08-25T18:30:46.977Z,96655.65
2018-08-25T18:34:11.732Z,96665.52
2018-08-25T18:37:36.549Z,96663.17
2018-08-25T18:41:01.624Z,96669.59
2018-08-25T18:44:26.401Z,96675.44
2018-08-25T18:47:51.455Z,96679.39
2018-08-25T18:51:17.508Z,96686.20
2018-08-25T18:54:42.988Z,96692.94
2018-08-25T18:58:08.644Z,96700.34
2018-08-25T19:01:33.603Z,96712.77
2018-08-25T19:05:00.502Z,96708.23
2018-08-25T19:08:27.240Z,96719.80
2018-08-25T19:11:52.455Z,96724.14
2018-08-25T19:15:17.249Z,96721.30
2018-08-25T19:18:42.062Z,96716.51
2018-08-25T19:22:07.080Z,96716.37
2018-08-25T19:25:32.056Z,96716.59
2018-08-25T19:28:57.215Z,96713.63
2018-08-25T19:32:22.367Z,96717.84
2018-08-25T19:35:47.412Z,96715.31
2018-08-25T19:39:12.521Z,96720.14
2018-08-25T19:42:37.664Z,96721.97
2018-08-25T19:46:02.856Z,96727.39
2018-08-25T19:49:28.106Z,96718.84
2018-08-25T19:52:53.240Z,96727.75
2018-08-25T19:56:18.226Z,96734.84
2018-08-25T19:59:43.349Z,96735.11
2018-08-25T20:03:08.378Z,96730.17
2018-08-25T20:06:33.217Z,96735.08
2018-08-25T20:09:58.389Z,96731.67
2018-08-25T20:13:23.308Z,96735.56
2018-08-25T20:16:48.251Z,96735.03
2018-08-25T20:20:13.301Z,96740.59
2018-08-25T20:23:38.316Z,96735.84
2018-08-25T20:27:03.202Z,96739.86
2018-08-25T20:30:28.054Z,96735.12
2018-08-25T20:33:52.854Z,96738.53
2018-08-25T20:37:17.958Z,96735.94
2018-08-25T20:40:43.182Z,96739.66
2018-08-25T20:44:08.603Z,96736.16
2018-08-25T20:47:33.421Z,96727.59
2018-08-25T20:50:58.318Z,96729.53
2018-08-25T20:54:23.168Z,96725.08
2018-08-25T20:57:47.906Z,96721.03
2018-08-25T21:01:12.766Z,96724.28
2018-08-25T21:04:37.630Z,96725.45
2018-08-25T21:08:02.445Z,96721.89
2018-08-25T21:11:27.293Z,96725.72
2018-08-25T21:14:52.157Z,96730.11
2018-08-25T21:18:17.228Z,96734.65
2018-08-25T21:21:42.105Z,96736.41
2018-08-25T21:25:07.239Z,96735.95
2018-08-25T21:28:32.110Z,96740.01
2018-08-25T21:31:56.950Z,96754.58
2018-08-25T21:35:21.730Z,96754.75
2018-08-25T21:38:46.471Z,96762.27
2018-08-25T21:42:11.382Z,96761.42
2018-08-25T21:45:36.326Z,96761.75
2018-08-25T21:49:01.055Z,96753.02
2018-08-25T21:52:26.553Z,96764.11
2018-08-25T21:55:51.251Z,96762.62
2018-08-25T21:59:16.027Z,96766.56
2018-08-25T22:02:40.793Z,96776.72
2018-08-25T22:06:05.786Z,96770.34
2018-08-25T22:09:30.496Z,96775.05
2018-08-25T22:12:55.213Z,96773.12
2018-08-25T22:16:20.250Z,96769.63
2018-08-25T22:19:45.181Z,96773.50
2018-08-25T22:23:09.876Z,96773.89
2018-08-25T22:26:35.401Z,96772.94
2018-08-25T22:30:00.268Z,96769.13
2018-08-25T22:33:25.043Z,96771.19
2018-08-25T22:36:51.401Z,96769.77
2018-08-25T22:40:16.228Z,96771.32
2018-08-25T22:43:40.986Z,96773.62
2018-08-25T22:47:05.964Z,96775.11
2018-08-25T22:50:30.867Z,96774.42
2018-08-25T22:53:55.605Z,96777.06
2018-08-25T22:57:20.263Z,96777.23
2018-08-25T23:00:45.113Z,96779.95
2018-08-25T23:04:10.838Z,96776.97
2018-08-25T23:07:35.704Z,96778.52
2018-08-25T23:11:00.451Z,96789.16
2018-08-25T23:14:25.129Z,96790.05
2018-08-25T23:17:49.782Z,96782.92
2018-08-25T23:21:14.493Z,96777.50
2018-08-25T23:24:39.203Z,96781.86
2018-08-25T23:28:03.951Z,96775.38
2018-08-25T23:31:28.706Z,96771.22
2018-08-25T23:34:53.415Z,96774.11
2018-08-25T23:38:18.186Z,96771.36
2018-08-25T23:41:42.980Z,96766.06
2018-08-25T23:45:07.708Z,96764.56
2018-08-25T23:48:32.409Z,96764.92
2018-08-25T23:51:57.071Z,96762.45
2018-08-25T23:55:21.862Z,96758.02
2018-08-25T23:58:46.620Z,96753.59
